| time (UTC) | temp C | wind direction | speed KPH | gust KPH | rain 1hr cm | rain 24hr cm | rain mn cm | humidity % | barometer mb |
| 20260504035508 | 13 | 214 | 1.6 | 6.4 | 0.00 | 0.15 | 0.15 | 67 | 1006.6 |
| 20260504035007 | 13 | 214 | 0.0 | 6.4 | 0.00 | 0.15 | 0.15 | 67 | 1006.7 |
| 20260504034507 | 13 | 214 | 0.0 | 4.8 | 0.00 | 0.15 | 0.15 | 66 | 1006.7 |
| 20260504033502 | 13 | 214 | 0.0 | 4.8 | 0.00 | 0.15 | 0.15 | 66 | 1006.7 |
| 20260504032954 | 14 | 214 | 1.6 | 6.4 | 0.00 | 0.15 | 0.15 | 66 | 1006.7 |
| 20260504032456 | 14 | 214 | 1.6 | 6.4 | 0.00 | 0.15 | 0.15 | 65 | 1006.8 |
| 20260504031955 | 14 | 214 | 0.0 | 6.4 | 0.00 | 0.15 | 0.15 | 65 | 1006.8 |
| 20260504031455 | 14 | 214 | 1.6 | 6.4 | 0.00 | 0.15 | 0.15 | 64 | 1006.7 |
| 20260504030950 | 15 | 214 | 1.6 | 6.4 | 0.00 | 0.15 | 0.15 | 63 | 1006.7 |
| 20260504030452 | 15 | 205 | 0.0 | 6.4 | 0.00 | 0.15 | 0.15 | 63 | 1006.7 |
| 20260504025950 | 15 | 205 | 1.6 | 9.7 | 0.00 | 0.15 | 0.15 | 62 | 1006.6 |
| 20260504024946 | 15 | 279 | 1.6 | 11.3 | 0.00 | 0.15 | 0.15 | 62 | 1006.7 |
| 20260504024450 | 15 | 150 | 0.0 | 4.8 | 0.00 | 0.15 | 0.15 | 62 | 1006.6 |
| 20260504023947 | 15 | 147 | 1.6 | 9.7 | 0.00 | 0.15 | 0.15 | 61 | 1006.6 |
| 20260504023444 | 15 | 179 | 1.6 | 9.7 | 0.00 | 0.15 | 0.15 | 61 | 1006.6 |
| 20260504022944 | 16 | 226 | 1.6 | 9.7 | 0.00 | 0.15 | 0.15 | 60 | 1006.6 |
| 20260504021440 | 16 | 185 | 0.0 | 4.8 | 0.00 | 0.15 | 0.15 | 58 | 1006.5 |
| 20260504020940 | 16 | 185 | 0.0 | 1.6 | 0.00 | 0.15 | 0.15 | 58 | 1006.4 |
| 20260504020441 | 16 | 185 | 0.0 | 1.6 | 0.00 | 0.15 | 0.15 | 57 | 1006.4 |
| 20260504015947 | 16 | 185 | 0.0 | 1.6 | 0.00 | 0.15 | 0.15 | 57 | 1006.3 |
| 20260504014934 | 17 | 185 | 0.0 | 4.8 | 0.00 | 0.15 | 0.15 | 55 | 1006.1 |
| 20260504014429 | 17 | 183 | 0.0 | 4.8 | 0.00 | 0.15 | 0.15 | 55 | 1005.9 |
| 20260504013417 | 17 | 167 | 0.0 | 6.4 | 0.00 | 0.15 | 0.15 | 53 | 1005.8 |
| 20260504012910 | 18 | 183 | 0.0 | 4.8 | 0.00 | 0.15 | 0.15 | 53 | 1005.9 |
| 20260504012412 | 18 | 182 | 0.0 | 4.8 | 0.00 | 0.15 | 0.15 | 52 | 1005.9 |
| 20260504011909 | 18 | 193 | 0.0 | 4.8 | 0.00 | 0.15 | 0.15 | 51 | 1005.8 |
| 20260504011409 | 18 | 193 | 1.6 | 4.8 | 0.00 | 0.15 | 0.15 | 51 | 1005.7 |
| 20260504010909 | 18 | 160 | 1.6 | 6.4 | 0.00 | 0.15 | 0.15 | 50 | 1005.7 |
| 20260504010411 | 18 | 160 | 1.6 | 11.3 | 0.00 | 0.15 | 0.15 | 49 | 1005.6 |
| 20260504005912 | 19 | 180 | 1.6 | 11.3 | 0.00 | 0.15 | 0.15 | 48 | 1005.5 |
| 20260504005408 | 19 | 189 | 1.6 | 9.7 | 0.00 | 0.15 | 0.15 | 47 | 1005.5 |
| 20260504004905 | 20 | 178 | 1.6 | 9.7 | 0.00 | 0.15 | 0.15 | 46 | 1005.5 |
| 20260504004408 | 20 | 179 | 1.6 | 9.7 | 0.00 | 0.15 | 0.15 | 46 | 1005.5 |
| 20260504003904 | 20 | 170 | 1.6 | 9.7 | 0.00 | 0.15 | 0.15 | 45 | 1005.6 |
| 20260504003406 | 20 | 136 | 1.6 | 11.3 | 0.00 | 0.15 | 0.15 | 44 | 1005.7 |
| 20260504002904 | 20 | 210 | 1.6 | 11.3 | 0.00 | 0.15 | 0.15 | 44 | 1005.6 |
| 20260504002404 | 21 | 168 | 1.6 | 9.7 | 0.00 | 0.15 | 0.15 | 43 | 1005.7 |
| 20260504001403 | 21 | 147 | 1.6 | 9.7 | 0.00 | 0.15 | 0.15 | 42 | 1005.6 |
| 20260504000416 | 21 | 282 | 4.8 | 16.1 | 0.00 | 0.15 | 0.15 | 40 | 1005.6 |
| 20260503235904 | 21 | 280 | 4.8 | 19.3 | 0.00 | 0.15 | 0.15 | 40 | 1005.6 |
| 20260503235356 | 21 | 250 | 6.4 | 19.3 | 0.00 | 0.15 | 0.15 | 41 | 1005.6 |
| 20260503233835 | 21 | 196 | 6.4 | 20.9 | 0.00 | 0.15 | 0.15 | 40 | 1005.6 |
| 20260503233330 | 21 | 236 | 8.0 | 25.7 | 0.00 | 0.15 | 0.15 | 41 | 1005.7 |
| 20260503232820 | 21 | 282 | 8.0 | 25.7 | 0.00 | 0.15 | 0.15 | 40 | 1005.6 |
| 20260503232317 | 21 | 240 | 8.0 | 25.7 | 0.00 | 0.15 | 0.15 | 40 | 1005.6 |
| 20260503231307 | 21 | 209 | 8.0 | 30.6 | 0.00 | 0.15 | 0.15 | 40 | 1005.7 |
| 20260503230812 | 21 | 264 | 8.0 | 33.8 | 0.00 | 0.15 | 0.15 | 40 | 1005.8 |
| 20260503225809 | 21 | 100 | 9.7 | 25.7 | 0.00 | 0.15 | 0.15 | 40 | 1005.9 |
| 20260503225306 | 21 | 266 | 14.5 | 33.8 | 0.00 | 0.15 | 0.15 | 40 | 1006.0 |
| 20260503224812 | 21 | 251 | 14.5 | 33.8 | 0.00 | 0.15 | 0.15 | 39 | 1005.9 |
| 20260503224310 | 21 | 263 | 9.7 | 25.7 | 0.00 | 0.15 | 0.15 | 40 | 1006.0 |
| 20260503223804 | 21 | 242 | 9.7 | 30.6 | 0.00 | 0.15 | 0.15 | 41 | 1006.0 |
| 20260503222811 | 21 | 301 | 9.7 | 33.8 | 0.00 | 0.15 | 0.15 | 41 | 1006.3 |
| 20260503222311 | 21 | 243 | 12.9 | 33.8 | 0.00 | 0.15 | 0.15 | 41 | 1006.3 |
| 20260503221807 | 21 | 251 | 14.5 | 35.4 | 0.00 | 0.15 | 0.15 | 41 | 1006.1 |
| 20260503221309 | 21 | 268 | 16.1 | 35.4 | 0.00 | 0.15 | 0.15 | 39 | 1006.1 |
| 20260503220803 | 21 | 257 | 12.9 | 35.4 | 0.00 | 0.15 | 0.15 | 40 | 1006.3 |
| 20260503220314 | 21 | 263 | 8.0 | 25.7 | 0.00 | 0.15 | 0.15 | 41 | 1006.0 |
| 20260503215318 | 21 | 238 | 8.0 | 35.4 | 0.00 | 0.15 | 0.15 | 44 | 1006.0 |
| 20260503214812 | 21 | 263 | 9.7 | 35.4 | 0.00 | 0.15 | 0.15 | 44 | 1006.1 |
| 20260503213313 | 21 | 255 | 8.0 | 33.8 | 0.00 | 0.15 | 0.15 | 43 | 1006.4 |
| 20260503212806 | 21 | 234 | 8.0 | 33.8 | 0.00 | 0.15 | 0.15 | 44 | 1006.5 |
| 20260503212306 | 21 | 220 | 8.0 | 33.8 | 0.00 | 0.15 | 0.15 | 44 | 1006.6 |
| 20260503211818 | 20 | 282 | 8.0 | 25.7 | 0.00 | 0.15 | 0.15 | 44 | 1006.7 |
| 20260503211308 | 20 | 266 | 9.7 | 25.7 | 0.00 | 0.15 | 0.15 | 45 | 1006.6 |
| 20260503210804 | 20 | 21 | 9.7 | 29.0 | 0.00 | 0.15 | 0.15 | 44 | 1006.8 |
| 20260503210308 | 20 | 253 | 8.0 | 29.0 | 0.00 | 0.15 | 0.15 | 44 | 1006.8 |
| 20260503205804 | 20 | 238 | 8.0 | 25.7 | 0.00 | 0.15 | 0.15 | 45 | 1006.8 |
| 20260503205304 | 20 | 184 | 8.0 | 25.7 | 0.00 | 0.15 | 0.15 | 44 | 1006.9 |
| 20260503204803 | 20 | 249 | 8.0 | 29.0 | 0.00 | 0.15 | 0.15 | 44 | 1007.0 |
| 20260503203753 | 20 | 287 | 9.7 | 35.4 | 0.00 | 0.15 | 0.15 | 45 | 1007.2 |
| 20260503203255 | 20 | 279 | 8.0 | 35.4 | 0.00 | 0.15 | 0.15 | 44 | 1007.3 |
| 20260503202254 | 20 | 145 | 8.0 | 25.7 | 0.00 | 0.15 | 0.15 | 46 | 1007.4 |
| 20260503201801 | 20 | 256 | 9.7 | 30.6 | 0.00 | 0.15 | 0.15 | 46 | 1007.5 |
| 20260503200753 | 19 | 251 | 9.7 | 35.4 | 0.00 | 0.15 | 0.15 | 45 | 1007.6 |
| 20260503200256 | 20 | 238 | 9.7 | 29.0 | 0.00 | 0.15 | 0.15 | 45 | 1007.8 |
| 20260503195249 | 19 | 132 | 12.9 | 43.5 | 0.00 | 0.15 | 0.15 | 45 | 1007.9 |
| 20260503194757 | 19 | 159 | 12.9 | 41.8 | 0.00 | 0.15 | 0.15 | 46 | 1007.9 |
| 20260503194252 | 19 | 227 | 9.7 | 41.8 | 0.00 | 0.15 | 0.15 | 47 | 1008.0 |
| 20260503193753 | 19 | 186 | 9.7 | 41.8 | 0.00 | 0.15 | 0.15 | 46 | 1008.0 |
| 20260503193247 | 19 | 211 | 9.7 | 25.7 | 0.00 | 0.15 | 0.15 | 46 | 1008.1 |
| 20260503192744 | 19 | 253 | 8.0 | 24.1 | 0.00 | 0.15 | 0.15 | 47 | 1008.1 |
| 20260503191742 | 18 | 238 | 9.7 | 25.7 | 0.00 | 0.15 | 0.15 | 48 | 1008.4 |
| 20260503191245 | 18 | 204 | 9.7 | 25.7 | 0.00 | 0.15 | 0.15 | 47 | 1008.6 |
| 20260503190241 | 18 | 261 | 12.9 | 38.6 | 0.00 | 0.15 | 0.15 | 47 | 1008.8 |
| 20260503185743 | 18 | 166 | 9.7 | 43.5 | 0.00 | 0.15 | 0.15 | 47 | 1008.8 |
| 20260503185245 | 18 | 288 | 12.9 | 43.5 | 0.00 | 0.15 | 0.15 | 45 | 1008.9 |
| 20260503184741 | 18 | 276 | 12.9 | 48.3 | 0.00 | 0.15 | 0.15 | 47 | 1008.8 |
| 20260503184243 | 18 | 168 | 12.9 | 48.3 | 0.00 | 0.15 | 0.15 | 47 | 1008.8 |
| 20260503183244 | 18 | 127 | 14.5 | 38.6 | 0.00 | 0.15 | 0.15 | 48 | 1008.9 |
| 20260503182737 | 18 | 182 | 9.7 | 35.4 | 0.00 | 0.15 | 0.15 | 46 | 1009.2 |
| 20260503182237 | 18 | 201 | 9.7 | 33.8 | 0.00 | 0.15 | 0.15 | 48 | 1009.3 |
| 20260503181739 | 18 | 251 | 9.7 | 33.8 | 0.00 | 0.15 | 0.15 | 48 | 1009.3 |
| 20260503180741 | 17 | 149 | 8.0 | 25.7 | 0.00 | 0.15 | 0.15 | 56 | 1009.5 |
| 20260503180238 | 17 | 127 | 9.7 | 30.6 | 0.00 | 0.15 | 0.15 | 57 | 1009.6 |
| 20260503175239 | 16 | 160 | 9.7 | 38.6 | 0.00 | 0.15 | 0.15 | 60 | 1009.7 |
| 20260503174740 | 16 | 153 | 12.9 | 38.6 | 0.00 | 0.15 | 0.15 | 59 | 1009.9 |
| 20260503174237 | 16 | 156 | 12.9 | 38.6 | 0.00 | 0.15 | 0.15 | 58 | 1009.7 |
| 20260503173743 | 16 | 211 | 9.7 | 35.4 | 0.00 | 0.15 | 0.15 | 59 | 1009.7 |
| 20260503173243 | 15 | 194 | 12.9 | 35.4 | 0.00 | 0.15 | 0.15 | 59 | 1009.7 |
| 20260503172736 | 15 | 137 | 9.7 | 33.8 | 0.00 | 0.15 | 0.15 | 61 | 1009.8 |
| 20260503172241 | 15 | 160 | 9.7 | 33.8 | 0.00 | 0.15 | 0.15 | 62 | 1009.7 |
| 20260503171741 | 15 | 211 | 9.7 | 30.6 | 0.00 | 0.15 | 0.15 | 60 | 1009.9 |
| 20260503171238 | 15 | 100 | 12.9 | 30.6 | 0.00 | 0.15 | 0.15 | 59 | 1009.9 |
| 20260503170742 | 14 | 178 | 12.9 | 29.0 | 0.00 | 0.15 | 0.15 | 58 | 1010.0 |
| 20260503170236 | 14 | 21 | 12.9 | 38.6 | 0.00 | 0.15 | 0.15 | 59 | 1010.3 |
| 20260503150715 | 8 | 144 | 6.4 | 19.3 | 0.10 | 0.15 | 0.15 | 82 | 1012.6 |
| 20260503150208 | 8 | 158 | 6.4 | 16.1 | 0.10 | 0.15 | 0.15 | 82 | 1012.8 |
| 20260503140145 | 10 | 185 | 1.6 | 14.5 | 0.03 | 0.03 | 0.03 | 78 | 1013.8 |
| 20260503131138 | 10 | 147 | 4.8 | 14.5 | 0.00 | 0.00 | 0.00 | 76 | 1013.7 |
| 20260503130639 | 10 | 209 | 4.8 | 9.7 | 0.00 | 0.00 | 0.00 | 75 | 1013.9 |
| 20260503130140 | 10 | 198 | 4.8 | 19.3 | 0.00 | 0.00 | 0.00 | 74 | 1014.1 |
| 20260503120132 | 8 | 245 | 4.8 | 16.1 | 0.00 | 0.00 | 0.00 | 64 | 1014.3 |
| 20260503110623 | 8 | 336 | 4.8 | 20.9 | 0.00 | 0.00 | 0.00 | 62 | 1013.8 |
| 20260503110120 | 8 | 155 | 4.8 | 20.9 | 0.00 | 0.00 | 0.00 | 62 | 1013.6 |
| 20260503100108 | 8 | 105 | 6.4 | 20.9 | 0.00 | 0.00 | 0.00 | 59 | 1014.1 |
| 20260503090107 | 8 | 145 | 4.8 | 16.1 | 0.00 | 0.00 | 0.00 | 58 | 1014.3 |
| 20260503081602 | 8 | 153 | 1.6 | 9.7 | 0.00 | 0.00 | 0.00 | 58 | 1014.6 |
| 20260503081103 | 8 | 172 | 1.6 | 11.3 | 0.00 | 0.00 | 0.00 | 58 | 1014.6 |
| 20260503080601 | 8 | 176 | 4.8 | 11.3 | 0.00 | 0.00 | 0.00 | 58 | 1014.7 |
| 20260503072549 | 7 | 144 | 1.6 | 14.5 | 0.00 | 0.00 | 0.00 | 58 | 1014.9 |
| 20260503072047 | 7 | 198 | 1.6 | 14.5 | 0.00 | 0.00 | 0.00 | 57 | 1014.9 |
| 20260503071538 | 7 | 206 | 1.6 | 9.7 | 0.00 | 0.00 | 0.00 | 57 | 1014.9 |
| 20260503071048 | 7 | 183 | 1.6 | 11.3 | 0.00 | 0.00 | 0.00 | 57 | 1015.0 |
| 20260503070544 | 7 | 222 | 4.8 | 11.3 | 0.00 | 0.00 | 0.00 | 57 | 1015.0 |
| 20260503055036 | 7 | 207 | 1.6 | 6.4 | 0.00 | 0.00 | 0.00 | 57 | 1015.5 |
| 20260503054534 | 7 | 157 | 1.6 | 11.3 | 0.00 | 0.00 | 0.00 | 57 | 1015.6 |
| 20260503054032 | 7 | 177 | 1.6 | 11.3 | 0.00 | 0.00 | 0.00 | 57 | 1015.6 |
| 20260503053535 | 7 | 207 | 1.6 | 9.7 | 0.00 | 0.00 | 0.00 | 57 | 1015.7 |
| 20260503053031 | 8 | 166 | 1.6 | 9.7 | 0.00 | 0.00 | 0.00 | 57 | 1015.7 |
| 20260503052531 | 8 | 164 | 1.6 | 6.4 | 0.00 | 0.00 | 0.00 | 57 | 1015.8 |
| 20260503052028 | 8 | 279 | 1.6 | 4.8 | 0.00 | 0.00 | 0.00 | 57 | 1015.9 |
| 20260503051530 | 8 | 138 | 1.6 | 6.4 | 0.00 | 0.00 | 0.00 | 57 | 1015.8 |
| 20260503051030 | 8 | 245 | 1.6 | 6.4 | 0.00 | 0.00 | 0.00 | 57 | 1015.9 |
| 20260503050533 | 8 | 182 | 1.6 | 9.7 | 0.00 | 0.00 | 0.00 | 57 | 1015.9 |
| 20260503050029 | 8 | 176 | 1.6 | 9.7 | 0.00 | 0.00 | 0.00 | 57 | 1015.9 |
| 20260503045027 | 8 | 239 | 0.0 | 6.4 | 0.00 | 0.00 | 0.00 | 57 | 1016.0 |
| 20260503044527 | 8 | 237 | 0.0 | 9.7 | 0.00 | 0.00 | 0.00 | 57 | 1016.0 |
| 20260503044025 | 8 | 181 | 1.6 | 9.7 | 0.00 | 0.00 | 0.00 | 57 | 1016.0 |
| 20260503043523 | 8 | 179 | 1.6 | 9.7 | 0.00 | 0.00 | 0.00 | 57 | 1016.0 |
| 20260503043021 | 8 | 178 | 1.6 | 9.7 | 0.00 | 0.00 | 0.00 | 57 | 1016.1 |
| 20260503042519 | 8 | 159 | 1.6 | 4.8 | 0.00 | 0.00 | 0.00 | 57 | 1016.2 |
| 20260503042016 | 8 | 164 | 1.6 | 6.4 | 0.00 | 0.00 | 0.00 | 57 | 1016.1 |
| 20260503041514 | 7 | 219 | 1.6 | 6.4 | 0.00 | 0.00 | 0.00 | 57 | 1016.1 |
| 20260503041021 | 7 | 205 | 1.6 | 4.8 | 0.00 | 0.00 | 0.00 | 56 | 1016.3 |
| 20260503040507 | 7 | 146 | 1.6 | 6.4 | 0.00 | 0.00 | 0.00 | 57 | 1016.3 |
| 20260503040006 | 7 | 145 | 1.6 | 6.4 | 0.00 | 0.00 | 0.00 | 57 | 1016.4 |